sensor_id;sensor_type;location;lat;lon;timestamp;temperature;humidity
80228;DHT22;69539;42.138;24.742;2023-05-10T00:00:14;24.00;33.30
80228;DHT22;69539;42.138;24.742;2023-05-10T00:02:40;24.00;33.30
80228;DHT22;69539;42.138;24.742;2023-05-10T00:05:06;24.00;33.20
80228;DHT22;69539;42.138;24.742;2023-05-10T00:07:32;24.00;33.20
80228;DHT22;69539;42.138;24.742;2023-05-10T00:09:58;24.00;33.40
80228;DHT22;69539;42.138;24.742;2023-05-10T00:12:23;24.00;33.30
80228;DHT22;69539;42.138;24.742;2023-05-10T00:14:49;24.00;33.40
80228;DHT22;69539;42.138;24.742;2023-05-10T00:17:14;24.00;33.40
80228;DHT22;69539;42.138;24.742;2023-05-10T00:19:40;24.00;33.30
80228;DHT22;69539;42.138;24.742;2023-05-10T00:22:06;24.00;33.30
80228;DHT22;69539;42.138;24.742;2023-05-10T00:24:31;24.00;33.30
80228;DHT22;69539;42.138;24.742;2023-05-10T00:26:57;24.00;33.30
80228;DHT22;69539;42.138;24.742;2023-05-10T00:29:22;24.00;33.30
80228;DHT22;69539;42.138;24.742;2023-05-10T00:31:48;24.00;33.20
80228;DHT22;69539;42.138;24.742;2023-05-10T00:34:14;24.00;33.30
80228;DHT22;69539;42.138;24.742;2023-05-10T00:36:40;24.00;33.30
80228;DHT22;69539;42.138;24.742;2023-05-10T00:39:05;24.00;33.30
80228;DHT22;69539;42.138;24.742;2023-05-10T00:41:31;24.00;33.30
80228;DHT22;69539;42.138;24.742;2023-05-10T00:44:00;24.00;33.20
80228;DHT22;69539;42.138;24.742;2023-05-10T00:46:27;24.00;33.30
80228;DHT22;69539;42.138;24.742;2023-05-10T00:48:53;24.00;33.30
80228;DHT22;69539;42.138;24.742;2023-05-10T00:51:19;24.00;33.30
80228;DHT22;69539;42.138;24.742;2023-05-10T00:53:46;24.00;33.30
80228;DHT22;69539;42.138;24.742;2023-05-10T00:56:12;24.00;33.30
80228;DHT22;69539;42.138;24.742;2023-05-10T00:58:39;24.00;33.30
80228;DHT22;69539;42.138;24.742;2023-05-10T01:01:05;24.00;33.20
80228;DHT22;69539;42.138;24.742;2023-05-10T01:03:32;24.00;33.30
80228;DHT22;69539;42.138;24.742;2023-05-10T01:05:58;24.00;33.30
80228;DHT22;69539;42.138;24.742;2023-05-10T01:08:24;24.00;33.30
80228;DHT22;69539;42.138;24.742;2023-05-10T01:10:51;24.00;33.30
80228;DHT22;69539;42.138;24.742;2023-05-10T01:13:36;24.00;33.30
80228;DHT22;69539;42.138;24.742;2023-05-10T01:16:03;24.00;34.50
80228;DHT22;69539;42.138;24.742;2023-05-10T01:18:34;24.00;33.20
80228;DHT22;69539;42.138;24.742;2023-05-10T01:40:28;23.90;33.20
80228;DHT22;69539;42.138;24.742;2023-05-10T01:43:05;23.90;33.10
80228;DHT22;69539;42.138;24.742;2023-05-10T01:45:49;24.00;33.10
80228;DHT22;69539;42.138;24.742;2023-05-10T01:48:17;23.90;33.10
80228;DHT22;69539;42.138;24.742;2023-05-10T01:50:45;23.90;33.10
80228;DHT22;69539;42.138;24.742;2023-05-10T01:53:13;23.90;33.10
80228;DHT22;69539;42.138;24.742;2023-05-10T01:55:45;23.90;33.10
80228;DHT22;69539;42.138;24.742;2023-05-10T01:58:28;23.90;33.00
80228;DHT22;69539;42.138;24.742;2023-05-10T02:00:55;23.90;33.10
80228;DHT22;69539;42.138;24.742;2023-05-10T02:03:24;23.90;33.10
80228;DHT22;69539;42.138;24.742;2023-05-10T02:05:52;23.90;33.10
80228;DHT22;69539;42.138;24.742;2023-05-10T02:08:19;23.90;33.10
80228;DHT22;69539;42.138;24.742;2023-05-10T02:10:47;23.90;33.00
80228;DHT22;69539;42.138;24.742;2023-05-10T02:13:14;23.90;33.10
80228;DHT22;69539;42.138;24.742;2023-05-10T02:15:41;23.90;33.10
80228;DHT22;69539;42.138;24.742;2023-05-10T02:18:09;23.90;33.00
80228;DHT22;69539;42.138;24.742;2023-05-10T02:20:37;23.90;33.00
80228;DHT22;69539;42.138;24.742;2023-05-10T02:23:03;23.90;33.00
80228;DHT22;69539;42.138;24.742;2023-05-10T02:25:29;23.90;33.00
80228;DHT22;69539;42.138;24.742;2023-05-10T02:27:56;23.90;34.00
80228;DHT22;69539;42.138;24.742;2023-05-10T02:30:23;23.90;33.00
80228;DHT22;69539;42.138;24.742;2023-05-10T02:32:50;24.00;33.00
80228;DHT22;69539;42.138;24.742;2023-05-10T02:35:17;23.90;33.00
80228;DHT22;69539;42.138;24.742;2023-05-10T02:37:44;23.90;33.10
80228;DHT22;69539;42.138;24.742;2023-05-10T02:40:11;23.90;33.10
80228;DHT22;69539;42.138;24.742;2023-05-10T02:42:38;23.90;33.10
80228;DHT22;69539;42.138;24.742;2023-05-10T02:45:10;23.90;33.10
80228;DHT22;69539;42.138;24.742;2023-05-10T02:47:37;23.90;33.00
80228;DHT22;69539;42.138;24.742;2023-05-10T02:50:03;23.90;33.00
80228;DHT22;69539;42.138;24.742;2023-05-10T02:52:50;23.90;33.00
80228;DHT22;69539;42.138;24.742;2023-05-10T02:55:19;23.90;33.00
80228;DHT22;69539;42.138;24.742;2023-05-10T02:57:51;23.90;33.00
80228;DHT22;69539;42.138;24.742;2023-05-10T03:00:17;23.90;33.00
80228;DHT22;69539;42.138;24.742;2023-05-10T03:02:43;23.90;33.00
80228;DHT22;69539;42.138;24.742;2023-05-10T03:05:08;23.90;33.00
80228;DHT22;69539;42.138;24.742;2023-05-10T03:07:34;23.90;33.00
80228;DHT22;69539;42.138;24.742;2023-05-10T03:10:01;23.90;33.10
80228;DHT22;69539;42.138;24.742;2023-05-10T03:15:26;23.90;33.00
80228;DHT22;69539;42.138;24.742;2023-05-10T03:23:04;23.90;32.90
80228;DHT22;69539;42.138;24.742;2023-05-10T03:25:31;23.90;32.90
80228;DHT22;69539;42.138;24.742;2023-05-10T03:27:58;23.90;32.90
80228;DHT22;69539;42.138;24.742;2023-05-10T03:30:25;23.90;32.90
80228;DHT22;69539;42.138;24.742;2023-05-10T03:32:51;23.90;33.50
80228;DHT22;69539;42.138;24.742;2023-05-10T03:35:17;23.80;33.00
80228;DHT22;69539;42.138;24.742;2023-05-10T03:37:42;23.80;32.90
80228;DHT22;69539;42.138;24.742;2023-05-10T03:40:08;23.90;32.90
80228;DHT22;69539;42.138;24.742;2023-05-10T03:42:34;23.90;32.90
80228;DHT22;69539;42.138;24.742;2023-05-10T03:44:59;23.90;32.90
80228;DHT22;69539;42.138;24.742;2023-05-10T03:47:25;23.90;32.80
80228;DHT22;69539;42.138;24.742;2023-05-10T03:49:51;23.80;32.80
80228;DHT22;69539;42.138;24.742;2023-05-10T03:52:17;23.90;32.30
80228;DHT22;69539;42.138;24.742;2023-05-10T03:54:43;23.90;30.40
80228;DHT22;69539;42.138;24.742;2023-05-10T03:57:09;23.80;29.90
80228;DHT22;69539;42.138;24.742;2023-05-10T03:59:35;23.80;29.60
80228;DHT22;69539;42.138;24.742;2023-05-10T04:02:00;23.70;29.40
80228;DHT22;69539;42.138;24.742;2023-05-10T04:04:26;23.70;29.50
80228;DHT22;69539;42.138;24.742;2023-05-10T04:06:52;23.60;29.40
80228;DHT22;69539;42.138;24.742;2023-05-10T04:09:17;23.60;29.20
80228;DHT22;69539;42.138;24.742;2023-05-10T04:11:43;23.60;29.10
80228;DHT22;69539;42.138;24.742;2023-05-10T04:14:09;23.50;29.00
80228;DHT22;69539;42.138;24.742;2023-05-10T04:16:34;23.50;29.00
80228;DHT22;69539;42.138;24.742;2023-05-10T04:19:00;23.50;28.80
80228;DHT22;69539;42.138;24.742;2023-05-10T04:21:26;23.50;28.70
80228;DHT22;69539;42.138;24.742;2023-05-10T04:23:51;23.50;28.80
80228;DHT22;69539;42.138;24.742;2023-05-10T04:26:17;23.40;28.70
80228;DHT22;69539;42.138;24.742;2023-05-10T04:28:42;23.40;28.70
80228;DHT22;69539;42.138;24.742;2023-05-10T04:31:10;23.40;28.60
80228;DHT22;69539;42.138;24.742;2023-05-10T04:33:36;23.40;28.60
80228;DHT22;69539;42.138;24.742;2023-05-10T04:36:02;23.40;28.50
80228;DHT22;69539;42.138;24.742;2023-05-10T04:38:28;23.40;28.50
80228;DHT22;69539;42.138;24.742;2023-05-10T04:40:54;23.40;28.60
80228;DHT22;69539;42.138;24.742;2023-05-10T04:43:20;23.30;28.40
80228;DHT22;69539;42.138;24.742;2023-05-10T04:45:46;23.30;28.80
80228;DHT22;69539;42.138;24.742;2023-05-10T04:48:11;23.30;28.80
80228;DHT22;69539;42.138;24.742;2023-05-10T04:50:38;23.30;30.00
80228;DHT22;69539;42.138;24.742;2023-05-10T04:53:04;23.30;31.40
80228;DHT22;69539;42.138;24.742;2023-05-10T04:55:29;23.30;33.90
80228;DHT22;69539;42.138;24.742;2023-05-10T04:57:55;23.30;35.10
80228;DHT22;69539;42.138;24.742;2023-05-10T05:00:22;23.30;33.40
80228;DHT22;69539;42.138;24.742;2023-05-10T05:02:48;23.20;32.40
80228;DHT22;69539;42.138;24.742;2023-05-10T05:05:14;23.30;31.30
80228;DHT22;69539;42.138;24.742;2023-05-10T05:07:40;23.20;30.80
80228;DHT22;69539;42.138;24.742;2023-05-10T05:10:07;23.20;31.30
80228;DHT22;69539;42.138;24.742;2023-05-10T05:12:33;23.20;30.90
80228;DHT22;69539;42.138;24.742;2023-05-10T05:14:58;23.20;31.10
80228;DHT22;69539;42.138;24.742;2023-05-10T05:17:24;23.20;30.50
80228;DHT22;69539;42.138;24.742;2023-05-10T05:19:50;23.10;30.00
80228;DHT22;69539;42.138;24.742;2023-05-10T05:22:15;23.10;29.70
80228;DHT22;69539;42.138;24.742;2023-05-10T05:24:41;23.10;29.60
80228;DHT22;69539;42.138;24.742;2023-05-10T05:27:07;23.20;29.80
80228;DHT22;69539;42.138;24.742;2023-05-10T05:29:33;23.10;29.90
80228;DHT22;69539;42.138;24.742;2023-05-10T05:31:59;23.20;29.90
80228;DHT22;69539;42.138;24.742;2023-05-10T05:34:24;23.10;29.60
80228;DHT22;69539;42.138;24.742;2023-05-10T05:36:50;23.20;29.80
80228;DHT22;69539;42.138;24.742;2023-05-10T05:39:16;23.20;29.50
80228;DHT22;69539;42.138;24.742;2023-05-10T05:41:42;23.10;29.30
80228;DHT22;69539;42.138;24.742;2023-05-10T05:44:08;23.10;29.30
80228;DHT22;69539;42.138;24.742;2023-05-10T05:46:33;23.10;29.20
80228;DHT22;69539;42.138;24.742;2023-05-10T05:48:59;23.10;29.00
80228;DHT22;69539;42.138;24.742;2023-05-10T05:51:24;23.10;30.00
80228;DHT22;69539;42.138;24.742;2023-05-10T05:53:50;23.10;30.00
80228;DHT22;69539;42.138;24.742;2023-05-10T05:56:16;23.10;29.60
80228;DHT22;69539;42.138;24.742;2023-05-10T05:58:43;23.10;29.40
80228;DHT22;69539;42.138;24.742;2023-05-10T06:01:08;23.20;30.40
80228;DHT22;69539;42.138;24.742;2023-05-10T06:03:34;23.20;30.40
80228;DHT22;69539;42.138;24.742;2023-05-10T06:06:00;23.30;30.10
80228;DHT22;69539;42.138;24.742;2023-05-10T06:08:25;23.30;30.00
80228;DHT22;69539;42.138;24.742;2023-05-10T06:10:51;23.30;30.00
80228;DHT22;69539;42.138;24.742;2023-05-10T06:13:17;23.40;29.90
80228;DHT22;69539;42.138;24.742;2023-05-10T06:15:42;23.40;30.00
80228;DHT22;69539;42.138;24.742;2023-05-10T06:18:08;23.40;30.10
80228;DHT22;69539;42.138;24.742;2023-05-10T06:20:33;23.50;30.40
80228;DHT22;69539;42.138;24.742;2023-05-10T06:22:59;23.60;30.30
80228;DHT22;69539;42.138;24.742;2023-05-10T06:25:25;23.60;30.30
80228;DHT22;69539;42.138;24.742;2023-05-10T06:27:50;23.60;30.20
80228;DHT22;69539;42.138;24.742;2023-05-10T06:30:20;23.70;30.30
80228;DHT22;69539;42.138;24.742;2023-05-10T06:32:48;23.70;30.30
80228;DHT22;69539;42.138;24.742;2023-05-10T06:35:14;23.70;30.40
80228;DHT22;69539;42.138;24.742;2023-05-10T06:37:39;23.70;30.40
80228;DHT22;69539;42.138;24.742;2023-05-10T06:40:06;23.80;30.50
80228;DHT22;69539;42.138;24.742;2023-05-10T06:42:32;23.80;30.50
80228;DHT22;69539;42.138;24.742;2023-05-10T06:44:57;23.80;30.50
80228;DHT22;69539;42.138;24.742;2023-05-10T06:47:23;23.80;30.60
80228;DHT22;69539;42.138;24.742;2023-05-10T06:49:49;23.80;30.90
80228;DHT22;69539;42.138;24.742;2023-05-10T06:52:14;23.90;30.80
80228;DHT22;69539;42.138;24.742;2023-05-10T06:54:40;23.90;30.90
80228;DHT22;69539;42.138;24.742;2023-05-10T06:57:05;23.90;30.90
80228;DHT22;69539;42.138;24.742;2023-05-10T06:59:31;24.00;31.10
80228;DHT22;69539;42.138;24.742;2023-05-10T07:01:57;24.00;31.20
80228;DHT22;69539;42.138;24.742;2023-05-10T07:04:23;24.00;31.30
80228;DHT22;69539;42.138;24.742;2023-05-10T07:06:48;24.00;31.30
80228;DHT22;69539;42.138;24.742;2023-05-10T07:09:15;24.00;31.30
80228;DHT22;69539;42.138;24.742;2023-05-10T07:11:41;24.10;31.40
80228;DHT22;69539;42.138;24.742;2023-05-10T07:14:07;24.10;31.40
80228;DHT22;69539;42.138;24.742;2023-05-10T07:16:32;24.10;31.50
80228;DHT22;69539;42.138;24.742;2023-05-10T07:18:58;24.10;31.60
80228;DHT22;69539;42.138;24.742;2023-05-10T07:21:23;24.20;31.70
80228;DHT22;69539;42.138;24.742;2023-05-10T07:23:49;24.20;31.80
80228;DHT22;69539;42.138;24.742;2023-05-10T07:26:15;24.20;31.90
80228;DHT22;69539;42.138;24.742;2023-05-10T07:28:41;24.20;31.90
80228;DHT22;69539;42.138;24.742;2023-05-10T07:31:07;24.20;32.00
80228;DHT22;69539;42.138;24.742;2023-05-10T07:33:33;24.30;32.00
80228;DHT22;69539;42.138;24.742;2023-05-10T07:35:58;24.30;32.00
80228;DHT22;69539;42.138;24.742;2023-05-10T07:38:24;24.30;32.10
80228;DHT22;69539;42.138;24.742;2023-05-10T07:40:50;24.30;32.20
80228;DHT22;69539;42.138;24.742;2023-05-10T07:43:15;24.40;32.10
80228;DHT22;69539;42.138;24.742;2023-05-10T07:45:41;24.40;32.20
80228;DHT22;69539;42.138;24.742;2023-05-10T07:48:07;24.40;32.20
80228;DHT22;69539;42.138;24.742;2023-05-10T07:50:32;24.40;32.20
80228;DHT22;69539;42.138;24.742;2023-05-10T07:52:58;24.40;32.30
80228;DHT22;69539;42.138;24.742;2023-05-10T07:55:24;24.30;32.30
80228;DHT22;69539;42.138;24.742;2023-05-10T07:57:50;24.40;32.40
80228;DHT22;69539;42.138;24.742;2023-05-10T08:00:19;24.40;32.60
80228;DHT22;69539;42.138;24.742;2023-05-10T08:02:46;24.50;32.30
80228;DHT22;69539;42.138;24.742;2023-05-10T08:05:12;24.50;32.20
80228;DHT22;69539;42.138;24.742;2023-05-10T08:07:37;24.50;32.30
80228;DHT22;69539;42.138;24.742;2023-05-10T08:10:04;24.50;32.20
80228;DHT22;69539;42.138;24.742;2023-05-10T08:12:29;24.50;32.00
80228;DHT22;69539;42.138;24.742;2023-05-10T08:14:55;24.60;32.00
80228;DHT22;69539;42.138;24.742;2023-05-10T08:17:21;24.60;32.10
80228;DHT22;69539;42.138;24.742;2023-05-10T08:19:47;24.60;32.10
80228;DHT22;69539;42.138;24.742;2023-05-10T08:22:12;24.60;32.20
80228;DHT22;69539;42.138;24.742;2023-05-10T08:24:38;24.60;32.20
80228;DHT22;69539;42.138;24.742;2023-05-10T08:27:08;24.60;32.20
80228;DHT22;69539;42.138;24.742;2023-05-10T08:29:33;24.60;32.40
80228;DHT22;69539;42.138;24.742;2023-05-10T08:31:59;24.60;32.40
80228;DHT22;69539;42.138;24.742;2023-05-10T08:34:26;24.60;32.40
80228;DHT22;69539;42.138;24.742;2023-05-10T08:36:52;24.60;32.50
80228;DHT22;69539;42.138;24.742;2023-05-10T08:39:18;24.60;32.60
80228;DHT22;69539;42.138;24.742;2023-05-10T08:41:44;24.60;32.90
80228;DHT22;69539;42.138;24.742;2023-05-10T08:44:12;24.60;33.00
80228;DHT22;69539;42.138;24.742;2023-05-10T08:46:41;24.60;32.90
80228;DHT22;69539;42.138;24.742;2023-05-10T08:49:16;24.60;32.70
80228;DHT22;69539;42.138;24.742;2023-05-10T08:51:49;24.60;32.90
80228;DHT22;69539;42.138;24.742;2023-05-10T08:54:16;24.60;33.00
80228;DHT22;69539;42.138;24.742;2023-05-10T08:56:42;24.60;33.10
80228;DHT22;69539;42.138;24.742;2023-05-10T08:59:07;24.60;33.20
80228;DHT22;69539;42.138;24.742;2023-05-10T09:01:35;24.60;33.40
80228;DHT22;69539;42.138;24.742;2023-05-10T09:04:02;24.50;33.30
80228;DHT22;69539;42.138;24.742;2023-05-10T09:06:28;24.50;33.30
80228;DHT22;69539;42.138;24.742;2023-05-10T09:08:54;24.60;33.20
80228;DHT22;69539;42.138;24.742;2023-05-10T09:11:21;24.60;33.20
80228;DHT22;69539;42.138;24.742;2023-05-10T09:13:48;24.50;33.00
80228;DHT22;69539;42.138;24.742;2023-05-10T09:16:16;24.50;33.10
80228;DHT22;69539;42.138;24.742;2023-05-10T09:18:41;24.50;33.00
80228;DHT22;69539;42.138;24.742;2023-05-10T09:21:07;24.50;33.00
80228;DHT22;69539;42.138;24.742;2023-05-10T09:23:33;24.50;33.00
80228;DHT22;69539;42.138;24.742;2023-05-10T09:26:05;24.50;33.10
80228;DHT22;69539;42.138;24.742;2023-05-10T09:28:50;24.50;33.00
80228;DHT22;69539;42.138;24.742;2023-05-10T09:31:16;24.60;32.90
80228;DHT22;69539;42.138;24.742;2023-05-10T09:33:48;24.50;32.50
80228;DHT22;69539;42.138;24.742;2023-05-10T09:36:15;24.50;32.40
80228;DHT22;69539;42.138;24.742;2023-05-10T09:38:51;24.50;32.30
80228;DHT22;69539;42.138;24.742;2023-05-10T09:41:19;24.50;32.00
80228;DHT22;69539;42.138;24.742;2023-05-10T09:43:45;24.60;31.80
80228;DHT22;69539;42.138;24.742;2023-05-10T09:46:11;24.60;31.40
80228;DHT22;69539;42.138;24.742;2023-05-10T09:48:47;24.50;30.80
80228;DHT22;69539;42.138;24.742;2023-05-10T09:51:23;24.50;30.80
80228;DHT22;69539;42.138;24.742;2023-05-10T09:54:09;24.50;31.20
80228;DHT22;69539;42.138;24.742;2023-05-10T09:56:36;24.50;30.80
80228;DHT22;69539;42.138;24.742;2023-05-10T09:59:04;24.50;30.70
80228;DHT22;69539;42.138;24.742;2023-05-10T10:01:31;24.50;31.00
80228;DHT22;69539;42.138;24.742;2023-05-10T10:03:57;24.50;30.80
80228;DHT22;69539;42.138;24.742;2023-05-10T10:06:24;24.50;30.50
80228;DHT22;69539;42.138;24.742;2023-05-10T10:08:50;24.50;30.50
80228;DHT22;69539;42.138;24.742;2023-05-10T10:11:16;24.50;30.30
80228;DHT22;69539;42.138;24.742;2023-05-10T10:13:42;24.50;29.90
80228;DHT22;69539;42.138;24.742;2023-05-10T10:16:09;24.60;29.80
80228;DHT22;69539;42.138;24.742;2023-05-10T10:18:36;24.60;29.50
80228;DHT22;69539;42.138;24.742;2023-05-10T10:21:08;24.60;29.60
80228;DHT22;69539;42.138;24.742;2023-05-10T10:23:37;24.50;29.60
80228;DHT22;69539;42.138;24.742;2023-05-10T10:26:04;24.50;29.40
80228;DHT22;69539;42.138;24.742;2023-05-10T10:36:32;24.40;29.20
80228;DHT22;69539;42.138;24.742;2023-05-10T10:39:00;24.40;29.00
80228;DHT22;69539;42.138;24.742;2023-05-10T10:41:41;24.40;29.20
80228;DHT22;69539;42.138;24.742;2023-05-10T10:52:45;24.40;29.00
80228;DHT22;69539;42.138;24.742;2023-05-10T10:55:24;24.40;28.80
80228;DHT22;69539;42.138;24.742;2023-05-10T10:57:56;24.30;28.90
80228;DHT22;69539;42.138;24.742;2023-05-10T11:00:36;24.30;29.00
80228;DHT22;69539;42.138;24.742;2023-05-10T11:05:50;24.40;29.50
80228;DHT22;69539;42.138;24.742;2023-05-10T11:08:29;24.40;28.80
80228;DHT22;69539;42.138;24.742;2023-05-10T11:11:02;24.30;28.70
80228;DHT22;69539;42.138;24.742;2023-05-10T11:13:45;24.30;28.60
80228;DHT22;69539;42.138;24.742;2023-05-10T11:18:40;24.30;28.50
80228;DHT22;69539;42.138;24.742;2023-05-10T11:21:08;24.30;28.50
80228;DHT22;69539;42.138;24.742;2023-05-10T11:26:09;24.30;28.70
80228;DHT22;69539;42.138;24.742;2023-05-10T11:28:41;24.30;28.60
80228;DHT22;69539;42.138;24.742;2023-05-10T11:31:06;24.30;28.60
80228;DHT22;69539;42.138;24.742;2023-05-10T11:33:42;24.30;28.40
80228;DHT22;69539;42.138;24.742;2023-05-10T11:36:13;24.30;28.20
80228;DHT22;69539;42.138;24.742;2023-05-10T11:38:39;24.30;28.20
80228;DHT22;69539;42.138;24.742;2023-05-10T11:41:05;24.30;28.30
80228;DHT22;69539;42.138;24.742;2023-05-10T11:43:31;24.30;27.90
80228;DHT22;69539;42.138;24.742;2023-05-10T11:45:57;24.30;28.00
80228;DHT22;69539;42.138;24.742;2023-05-10T11:48:23;24.30;28.20
80228;DHT22;69539;42.138;24.742;2023-05-10T11:50:50;24.30;28.30
80228;DHT22;69539;42.138;24.742;2023-05-10T11:53:15;24.30;28.10
80228;DHT22;69539;42.138;24.742;2023-05-10T11:55:41;24.30;28.10
80228;DHT22;69539;42.138;24.742;2023-05-10T11:58:06;24.30;28.10
80228;DHT22;69539;42.138;24.742;2023-05-10T12:00:32;24.30;28.10
80228;DHT22;69539;42.138;24.742;2023-05-10T12:02:59;24.30;28.00
80228;DHT22;69539;42.138;24.742;2023-05-10T12:05:25;24.30;28.00
80228;DHT22;69539;42.138;24.742;2023-05-10T12:07:51;24.40;28.10
80228;DHT22;69539;42.138;24.742;2023-05-10T12:10:25;24.30;27.80
80228;DHT22;69539;42.138;24.742;2023-05-10T12:12:52;24.40;28.00
80228;DHT22;69539;42.138;24.742;2023-05-10T12:15:22;24.30;27.60
80228;DHT22;69539;42.138;24.742;2023-05-10T12:17:49;24.30;27.70
80228;DHT22;69539;42.138;24.742;2023-05-10T12:20:17;24.40;27.80
80228;DHT22;69539;42.138;24.742;2023-05-10T12:22:51;24.40;27.80
80228;DHT22;69539;42.138;24.742;2023-05-10T12:25:21;24.40;27.80
80228;DHT22;69539;42.138;24.742;2023-05-10T12:27:52;24.50;27.80
80228;DHT22;69539;42.138;24.742;2023-05-10T12:30:28;24.40;27.80
80228;DHT22;69539;42.138;24.742;2023-05-10T12:33:06;24.40;27.80
80228;DHT22;69539;42.138;24.742;2023-05-10T12:35:33;24.40;27.80
80228;DHT22;69539;42.138;24.742;2023-05-10T12:37:59;24.50;28.00
80228;DHT22;69539;42.138;24.742;2023-05-10T12:40:25;24.40;27.90
80228;DHT22;69539;42.138;24.742;2023-05-10T12:42:50;24.50;28.10
80228;DHT22;69539;42.138;24.742;2023-05-10T12:45:17;24.50;28.00
80228;DHT22;69539;42.138;24.742;2023-05-10T12:47:43;24.50;28.00
80228;DHT22;69539;42.138;24.742;2023-05-10T12:50:09;24.50;27.90
80228;DHT22;69539;42.138;24.742;2023-05-10T12:52:35;24.50;27.90
80228;DHT22;69539;42.138;24.742;2023-05-10T12:55:01;24.50;27.90
80228;DHT22;69539;42.138;24.742;2023-05-10T12:57:28;24.50;27.80
80228;DHT22;69539;42.138;24.742;2023-05-10T12:59:54;24.50;27.80
80228;DHT22;69539;42.138;24.742;2023-05-10T13:02:20;24.50;27.80
80228;DHT22;69539;42.138;24.742;2023-05-10T13:04:47;24.50;27.60
80228;DHT22;69539;42.138;24.742;2023-05-10T13:07:13;24.50;27.60
80228;DHT22;69539;42.138;24.742;2023-05-10T13:09:39;24.50;27.70
80228;DHT22;69539;42.138;24.742;2023-05-10T13:12:05;24.50;27.80
80228;DHT22;69539;42.138;24.742;2023-05-10T13:14:31;24.60;27.70
80228;DHT22;69539;42.138;24.742;2023-05-10T13:16:56;24.60;27.80
80228;DHT22;69539;42.138;24.742;2023-05-10T13:19:22;24.60;27.80
80228;DHT22;69539;42.138;24.742;2023-05-10T13:21:48;24.60;27.50
80228;DHT22;69539;42.138;24.742;2023-05-10T13:24:13;24.60;27.50
80228;DHT22;69539;42.138;24.742;2023-05-10T13:26:40;24.60;27.50
80228;DHT22;69539;42.138;24.742;2023-05-10T13:29:06;24.60;27.40
80228;DHT22;69539;42.138;24.742;2023-05-10T13:31:33;24.60;27.50
80228;DHT22;69539;42.138;24.742;2023-05-10T13:33:59;24.50;27.50
80228;DHT22;69539;42.138;24.742;2023-05-10T13:36:24;24.50;27.60
80228;DHT22;69539;42.138;24.742;2023-05-10T13:38:50;24.50;27.60
80228;DHT22;69539;42.138;24.742;2023-05-10T13:41:16;24.50;27.60
80228;DHT22;69539;42.138;24.742;2023-05-10T13:43:41;24.50;27.70
80228;DHT22;69539;42.138;24.742;2023-05-10T13:46:07;24.50;27.40
80228;DHT22;69539;42.138;24.742;2023-05-10T13:48:33;24.50;27.50
80228;DHT22;69539;42.138;24.742;2023-05-10T13:50:58;24.50;27.50
80228;DHT22;69539;42.138;24.742;2023-05-10T13:53:24;24.50;27.70
80228;DHT22;69539;42.138;24.742;2023-05-10T13:59:02;24.50;27.50
80228;DHT22;69539;42.138;24.742;2023-05-10T14:01:28;24.50;27.60
80228;DHT22;69539;42.138;24.742;2023-05-10T14:03:54;24.50;27.60
80228;DHT22;69539;42.138;24.742;2023-05-10T14:06:20;24.50;27.50
80228;DHT22;69539;42.138;24.742;2023-05-10T14:08:45;24.50;27.50
80228;DHT22;69539;42.138;24.742;2023-05-10T14:11:11;24.50;27.40
80228;DHT22;69539;42.138;24.742;2023-05-10T14:13:37;24.50;27.20
80228;DHT22;69539;42.138;24.742;2023-05-10T14:16:03;24.50;27.40
80228;DHT22;69539;42.138;24.742;2023-05-10T14:18:28;24.50;27.40
80228;DHT22;69539;42.138;24.742;2023-05-10T14:20:54;24.60;27.40
80228;DHT22;69539;42.138;24.742;2023-05-10T14:23:21;24.60;27.50
80228;DHT22;69539;42.138;24.742;2023-05-10T14:25:50;24.60;27.60
80228;DHT22;69539;42.138;24.742;2023-05-10T14:28:16;24.60;27.50
80228;DHT22;69539;42.138;24.742;2023-05-10T14:30:43;24.50;27.80
80228;DHT22;69539;42.138;24.742;2023-05-10T14:33:09;24.60;28.00
80228;DHT22;69539;42.138;24.742;2023-05-10T14:35:35;24.60;27.90
80228;DHT22;69539;42.138;24.742;2023-05-10T14:38:02;24.60;27.80
80228;DHT22;69539;42.138;24.742;2023-05-10T14:40:28;24.60;27.50
80228;DHT22;69539;42.138;24.742;2023-05-10T14:42:54;24.50;27.00
80228;DHT22;69539;42.138;24.742;2023-05-10T14:45:21;24.60;27.00
80228;DHT22;69539;42.138;24.742;2023-05-10T14:47:46;24.60;27.30
